sensor_id;sensor_type;location;lat;lon;timestamp;temperature;humidity
16134;DHT22;8172;45.018;5.972;2022-10-17T00:01:03;14.70;64.50
16134;DHT22;8172;45.018;5.972;2022-10-17T00:06:15;14.70;64.50
16134;DHT22;8172;45.018;5.972;2022-10-17T00:16:47;14.70;64.20
16134;DHT22;8172;45.018;5.972;2022-10-17T00:21:59;14.70;64.20
16134;DHT22;8172;45.018;5.972;2022-10-17T00:27:10;14.70;64.20
16134;DHT22;8172;45.018;5.972;2022-10-17T00:32:20;14.70;64.10
16134;DHT22;8172;45.018;5.972;2022-10-17T00:37:30;14.70;64.00
16134;DHT22;8172;45.018;5.972;2022-10-17T00:42:43;14.70;63.90
16134;DHT22;8172;45.018;5.972;2022-10-17T00:47:55;14.70;63.90
16134;DHT22;8172;45.018;5.972;2022-10-17T00:53:05;14.70;64.20
16134;DHT22;8172;45.018;5.972;2022-10-17T00:58:18;14.70;64.40
16134;DHT22;8172;45.018;5.972;2022-10-17T01:03:31;14.70;64.40
16134;DHT22;8172;45.018;5.972;2022-10-17T01:08:41;14.70;64.20
16134;DHT22;8172;45.018;5.972;2022-10-17T01:13:55;14.70;64.20
16134;DHT22;8172;45.018;5.972;2022-10-17T01:24:26;14.80;64.10
16134;DHT22;8172;45.018;5.972;2022-10-17T01:34:54;14.80;64.10
16134;DHT22;8172;45.018;5.972;2022-10-17T01:40:05;14.70;64.10
16134;DHT22;8172;45.018;5.972;2022-10-17T01:50:31;14.80;64.10
16134;DHT22;8172;45.018;5.972;2022-10-17T01:55:43;14.70;64.00
16134;DHT22;8172;45.018;5.972;2022-10-17T02:00:56;14.70;63.90
16134;DHT22;8172;45.018;5.972;2022-10-17T02:11:23;14.80;64.00
16134;DHT22;8172;45.018;5.972;2022-10-17T02:16:45;14.80;64.00
16134;DHT22;8172;45.018;5.972;2022-10-17T02:32:47;14.90;63.90
16134;DHT22;8172;45.018;5.972;2022-10-17T02:37:55;14.90;63.80
16134;DHT22;8172;45.018;5.972;2022-10-17T02:43:29;14.90;63.80
16134;DHT22;8172;45.018;5.972;2022-10-17T02:48:54;14.90;63.70
16134;DHT22;8172;45.018;5.972;2022-10-17T02:59:26;14.90;63.70
16134;DHT22;8172;45.018;5.972;2022-10-17T03:04:41;14.90;63.70
16134;DHT22;8172;45.018;5.972;2022-10-17T03:09:51;14.90;63.80
16134;DHT22;8172;45.018;5.972;2022-10-17T03:15:00;14.90;63.80
16134;DHT22;8172;45.018;5.972;2022-10-17T03:20:12;14.80;63.80
16134;DHT22;8172;45.018;5.972;2022-10-17T03:25:23;14.80;64.00
16134;DHT22;8172;45.018;5.972;2022-10-17T03:30:33;14.70;64.00
16134;DHT22;8172;45.018;5.972;2022-10-17T03:35:44;14.70;64.00
16134;DHT22;8172;45.018;5.972;2022-10-17T03:40:55;14.60;64.00
16134;DHT22;8172;45.018;5.972;2022-10-17T03:46:07;14.60;64.20
16134;DHT22;8172;45.018;5.972;2022-10-17T03:51:20;14.60;64.20
16134;DHT22;8172;45.018;5.972;2022-10-17T03:56:33;14.50;64.20
16134;DHT22;8172;45.018;5.972;2022-10-17T04:01:45;14.50;64.30
16134;DHT22;8172;45.018;5.972;2022-10-17T04:06:56;14.40;64.50
16134;DHT22;8172;45.018;5.972;2022-10-17T04:12:08;14.40;64.60
16134;DHT22;8172;45.018;5.972;2022-10-17T04:17:19;14.30;64.50
16134;DHT22;8172;45.018;5.972;2022-10-17T04:22:29;14.30;64.50
16134;DHT22;8172;45.018;5.972;2022-10-17T04:27:40;14.30;64.40
16134;DHT22;8172;45.018;5.972;2022-10-17T04:32:51;14.30;64.50
16134;DHT22;8172;45.018;5.972;2022-10-17T04:38:01;14.30;64.50
16134;DHT22;8172;45.018;5.972;2022-10-17T04:43:09;14.30;64.50
16134;DHT22;8172;45.018;5.972;2022-10-17T04:48:19;14.20;64.50
16134;DHT22;8172;45.018;5.972;2022-10-17T04:58:46;14.20;64.50
16134;DHT22;8172;45.018;5.972;2022-10-17T05:03:57;14.10;64.60
16134;DHT22;8172;45.018;5.972;2022-10-17T05:09:09;14.10;64.60
16134;DHT22;8172;45.018;5.972;2022-10-17T05:19:34;14.10;64.50
16134;DHT22;8172;45.018;5.972;2022-10-17T05:24:44;14.10;64.60
16134;DHT22;8172;45.018;5.972;2022-10-17T05:30:18;14.00;64.60
16134;DHT22;8172;45.018;5.972;2022-10-17T05:35:30;14.00;64.50
16134;DHT22;8172;45.018;5.972;2022-10-17T05:40:43;14.00;64.50
16134;DHT22;8172;45.018;5.972;2022-10-17T05:45:55;14.00;64.60
16134;DHT22;8172;45.018;5.972;2022-10-17T05:51:12;14.00;64.60
16134;DHT22;8172;45.018;5.972;2022-10-17T05:56:23;14.10;64.60
16134;DHT22;8172;45.018;5.972;2022-10-17T06:01:34;14.10;64.60
16134;DHT22;8172;45.018;5.972;2022-10-17T06:06:46;14.10;64.60
16134;DHT22;8172;45.018;5.972;2022-10-17T06:11:58;14.10;64.60
16134;DHT22;8172;45.018;5.972;2022-10-17T06:17:09;14.10;64.60
16134;DHT22;8172;45.018;5.972;2022-10-17T06:22:21;14.10;64.50
16134;DHT22;8172;45.018;5.972;2022-10-17T06:32:55;14.10;64.70
16134;DHT22;8172;45.018;5.972;2022-10-17T06:38:08;14.10;64.60
16134;DHT22;8172;45.018;5.972;2022-10-17T06:43:20;14.10;64.80
16134;DHT22;8172;45.018;5.972;2022-10-17T06:48:32;14.10;64.90
16134;DHT22;8172;45.018;5.972;2022-10-17T06:53:43;14.20;64.80
16134;DHT22;8172;45.018;5.972;2022-10-17T06:58:54;14.20;64.90
16134;DHT22;8172;45.018;5.972;2022-10-17T07:04:06;14.20;64.90
16134;DHT22;8172;45.018;5.972;2022-10-17T07:09:17;14.20;64.90
16134;DHT22;8172;45.018;5.972;2022-10-17T07:14:28;14.20;64.90
16134;DHT22;8172;45.018;5.972;2022-10-17T07:19:40;14.20;65.00
16134;DHT22;8172;45.018;5.972;2022-10-17T07:24:52;14.20;65.10
16134;DHT22;8172;45.018;5.972;2022-10-17T07:30:04;14.10;65.30
16134;DHT22;8172;45.018;5.972;2022-10-17T07:35:17;14.10;65.40
16134;DHT22;8172;45.018;5.972;2022-10-17T07:40:25;14.10;65.40
16134;DHT22;8172;45.018;5.972;2022-10-17T07:45:38;14.20;65.40
16134;DHT22;8172;45.018;5.972;2022-10-17T07:50:58;14.30;65.40
16134;DHT22;8172;45.018;5.972;2022-10-17T07:56:06;14.30;65.40
16134;DHT22;8172;45.018;5.972;2022-10-17T08:01:17;14.40;65.30
16134;DHT22;8172;45.018;5.972;2022-10-17T08:06:29;14.50;65.30
16134;DHT22;8172;45.018;5.972;2022-10-17T08:11:49;14.60;65.20
16134;DHT22;8172;45.018;5.972;2022-10-17T08:16:54;14.70;64.80
16134;DHT22;8172;45.018;5.972;2022-10-17T08:22:05;14.80;64.60
16134;DHT22;8172;45.018;5.972;2022-10-17T08:27:15;14.90;64.40
16134;DHT22;8172;45.018;5.972;2022-10-17T08:37:42;15.20;64.20
16134;DHT22;8172;45.018;5.972;2022-10-17T08:43:00;15.40;64.10
16134;DHT22;8172;45.018;5.972;2022-10-17T08:48:28;15.60;64.00
16134;DHT22;8172;45.018;5.972;2022-10-17T08:53:44;15.80;63.80
16134;DHT22;8172;45.018;5.972;2022-10-17T08:58:55;16.00;63.90
16134;DHT22;8172;45.018;5.972;2022-10-17T09:20:13;16.60;61.70
16134;DHT22;8172;45.018;5.972;2022-10-17T09:25:20;16.70;61.10
16134;DHT22;8172;45.018;5.972;2022-10-17T09:35:49;16.80;60.70
16134;DHT22;8172;45.018;5.972;2022-10-17T09:41:03;16.80;60.70
16134;DHT22;8172;45.018;5.972;2022-10-17T09:51:32;17.00;60.90
16134;DHT22;8172;45.018;5.972;2022-10-17T10:02:14;17.30;59.50
16134;DHT22;8172;45.018;5.972;2022-10-17T10:07:15;17.50;59.10
16134;DHT22;8172;45.018;5.972;2022-10-17T10:12:33;17.70;58.90
16134;DHT22;8172;45.018;5.972;2022-10-17T10:17:52;17.80;58.00
16134;DHT22;8172;45.018;5.972;2022-10-17T10:23:08;17.90;57.90
16134;DHT22;8172;45.018;5.972;2022-10-17T10:28:22;18.10;58.10
16134;DHT22;8172;45.018;5.972;2022-10-17T10:33:40;18.30;57.30
16134;DHT22;8172;45.018;5.972;2022-10-17T10:38:57;18.40;56.90
16134;DHT22;8172;45.018;5.972;2022-10-17T10:44:12;18.40;56.40
16134;DHT22;8172;45.018;5.972;2022-10-17T10:49:27;18.60;56.60
16134;DHT22;8172;45.018;5.972;2022-10-17T10:54:38;18.70;56.00
16134;DHT22;8172;45.018;5.972;2022-10-17T11:10:29;19.00;54.60
16134;DHT22;8172;45.018;5.972;2022-10-17T11:15:44;19.10;54.70
16134;DHT22;8172;45.018;5.972;2022-10-17T11:20:58;19.30;54.10
16134;DHT22;8172;45.018;5.972;2022-10-17T11:26:10;19.30;54.10
16134;DHT22;8172;45.018;5.972;2022-10-17T11:31:20;19.50;53.80
16134;DHT22;8172;45.018;5.972;2022-10-17T11:36:31;19.50;53.40
16134;DHT22;8172;45.018;5.972;2022-10-17T11:41:48;19.60;52.80
16134;DHT22;8172;45.018;5.972;2022-10-17T11:47:01;19.70;52.80
16134;DHT22;8172;45.018;5.972;2022-10-17T11:52:19;19.80;52.40
16134;DHT22;8172;45.018;5.972;2022-10-17T12:18:40;20.10;51.30
16134;DHT22;8172;45.018;5.972;2022-10-17T12:23:52;20.10;51.50
16134;DHT22;8172;45.018;5.972;2022-10-17T12:29:22;20.30;51.20
16134;DHT22;8172;45.018;5.972;2022-10-17T12:34:25;20.30;50.70
16134;DHT22;8172;45.018;5.972;2022-10-17T12:39:42;20.40;50.60
16134;DHT22;8172;45.018;5.972;2022-10-17T12:44:52;20.40;50.30
16134;DHT22;8172;45.018;5.972;2022-10-17T12:55:22;20.50;50.30
16134;DHT22;8172;45.018;5.972;2022-10-17T13:00:32;20.60;50.00
16134;DHT22;8172;45.018;5.972;2022-10-17T13:05:48;20.60;50.00
16134;DHT22;8172;45.018;5.972;2022-10-17T13:10:57;20.70;49.80
16134;DHT22;8172;45.018;5.972;2022-10-17T13:16:08;20.80;49.90
16134;DHT22;8172;45.018;5.972;2022-10-17T13:21:20;20.80;49.90
16134;DHT22;8172;45.018;5.972;2022-10-17T13:26:35;20.80;49.80
16134;DHT22;8172;45.018;5.972;2022-10-17T13:37:03;20.90;49.10
16134;DHT22;8172;45.018;5.972;2022-10-17T13:42:17;20.80;49.40
16134;DHT22;8172;45.018;5.972;2022-10-17T13:47:34;20.80;49.30
16134;DHT22;8172;45.018;5.972;2022-10-17T13:52:42;20.90;49.30
16134;DHT22;8172;45.018;5.972;2022-10-17T13:57:52;20.70;49.20
16134;DHT22;8172;45.018;5.972;2022-10-17T14:03:03;20.50;49.80
16134;DHT22;8172;45.018;5.972;2022-10-17T14:08:19;20.50;50.00
16134;DHT22;8172;45.018;5.972;2022-10-17T14:13:36;20.50;50.00
16134;DHT22;8172;45.018;5.972;2022-10-17T14:18:49;20.50;49.80
16134;DHT22;8172;45.018;5.972;2022-10-17T14:29:23;20.50;49.50
16134;DHT22;8172;45.018;5.972;2022-10-17T14:34:31;20.50;49.70
16134;DHT22;8172;45.018;5.972;2022-10-17T14:39:39;20.40;49.70
16134;DHT22;8172;45.018;5.972;2022-10-17T14:44:50;20.30;49.90
16134;DHT22;8172;45.018;5.972;2022-10-17T14:50:22;20.10;50.00
16134;DHT22;8172;45.018;5.972;2022-10-17T14:55:21;20.00;49.90
16134;DHT22;8172;45.018;5.972;2022-10-17T15:00:30;19.80;50.10
16134;DHT22;8172;45.018;5.972;2022-10-17T15:05:53;19.60;50.40
16134;DHT22;8172;45.018;5.972;2022-10-17T15:11:07;19.50;50.60
16134;DHT22;8172;45.018;5.972;2022-10-17T15:16:21;19.30;50.60
16134;DHT22;8172;45.018;5.972;2022-10-17T15:21:31;19.20;50.70
16134;DHT22;8172;45.018;5.972;2022-10-17T15:26:56;19.20;50.80
16134;DHT22;8172;45.018;5.972;2022-10-17T15:32:05;19.10;50.90
16134;DHT22;8172;45.018;5.972;2022-10-17T15:42:33;19.00;51.10
16134;DHT22;8172;45.018;5.972;2022-10-17T15:47:54;18.90;51.40
16134;DHT22;8172;45.018;5.972;2022-10-17T15:53:04;18.80;51.30
16134;DHT22;8172;45.018;5.972;2022-10-17T15:58:16;18.70;51.40
16134;DHT22;8172;45.018;5.972;2022-10-17T16:03:25;18.70;51.50
16134;DHT22;8172;45.018;5.972;2022-10-17T16:08:39;18.70;51.60
16134;DHT22;8172;45.018;5.972;2022-10-17T16:13:54;18.60;51.70
16134;DHT22;8172;45.018;5.972;2022-10-17T16:19:07;18.60;52.00
16134;DHT22;8172;45.018;5.972;2022-10-17T16:24:18;18.60;52.10
16134;DHT22;8172;45.018;5.972;2022-10-17T16:29:30;18.50;52.20
16134;DHT22;8172;45.018;5.972;2022-10-17T16:34:41;18.50;52.30
16134;DHT22;8172;45.018;5.972;2022-10-17T16:39:51;18.40;52.50
16134;DHT22;8172;45.018;5.972;2022-10-17T16:45:00;18.40;52.60
16134;DHT22;8172;45.018;5.972;2022-10-17T16:50:15;18.30;52.70
16134;DHT22;8172;45.018;5.972;2022-10-17T16:55:26;18.30;52.90
16134;DHT22;8172;45.018;5.972;2022-10-17T17:00:35;18.20;53.00
16134;DHT22;8172;45.018;5.972;2022-10-17T17:10:58;18.10;53.30
16134;DHT22;8172;45.018;5.972;2022-10-17T17:16:12;18.10;53.20
16134;DHT22;8172;45.018;5.972;2022-10-17T17:21:24;18.00;53.40
16134;DHT22;8172;45.018;5.972;2022-10-17T17:26:38;18.00;53.80
16134;DHT22;8172;45.018;5.972;2022-10-17T17:31:50;18.00;53.80
16134;DHT22;8172;45.018;5.972;2022-10-17T17:42:17;17.90;54.20
16134;DHT22;8172;45.018;5.972;2022-10-17T17:47:28;17.90;54.20
16134;DHT22;8172;45.018;5.972;2022-10-17T17:52:42;18.00;54.40
16134;DHT22;8172;45.018;5.972;2022-10-17T17:57:57;18.00;54.40
16134;DHT22;8172;45.018;5.972;2022-10-17T18:03:09;17.90;54.90
16134;DHT22;8172;45.018;5.972;2022-10-17T18:08:23;17.90;55.00
16134;DHT22;8172;45.018;5.972;2022-10-17T18:14:05;17.90;55.10
16134;DHT22;8172;45.018;5.972;2022-10-17T18:19:11;17.90;55.40
16134;DHT22;8172;45.018;5.972;2022-10-17T18:24:23;17.90;55.50
16134;DHT22;8172;45.018;5.972;2022-10-17T18:29:35;17.80;55.60
16134;DHT22;8172;45.018;5.972;2022-10-17T18:35:09;17.80;55.70
16134;DHT22;8172;45.018;5.972;2022-10-17T18:40:19;17.70;55.80
16134;DHT22;8172;45.018;5.972;2022-10-17T18:45:31;17.70;56.00
16134;DHT22;8172;45.018;5.972;2022-10-17T18:50:42;17.70;56.00
16134;DHT22;8172;45.018;5.972;2022-10-17T18:56:00;17.70;56.00
16134;DHT22;8172;45.018;5.972;2022-10-17T19:01:12;17.70;56.00
16134;DHT22;8172;45.018;5.972;2022-10-17T19:06:26;17.70;56.20
16134;DHT22;8172;45.018;5.972;2022-10-17T19:11:37;17.70;56.30
16134;DHT22;8172;45.018;5.972;2022-10-17T19:16:49;17.70;56.40
16134;DHT22;8172;45.018;5.972;2022-10-17T19:22:00;17.70;56.80
16134;DHT22;8172;45.018;5.972;2022-10-17T19:27:11;17.70;56.80
16134;DHT22;8172;45.018;5.972;2022-10-17T19:32:27;17.70;56.90
16134;DHT22;8172;45.018;5.972;2022-10-17T19:37:43;17.70;57.10
16134;DHT22;8172;45.018;5.972;2022-10-17T19:42:56;17.70;57.20
16134;DHT22;8172;45.018;5.972;2022-10-17T19:48:05;17.70;57.30
16134;DHT22;8172;45.018;5.972;2022-10-17T19:53:14;17.70;57.40
16134;DHT22;8172;45.018;5.972;2022-10-17T19:58:25;17.70;57.40
16134;DHT22;8172;45.018;5.972;2022-10-17T20:03:37;17.60;57.50
16134;DHT22;8172;45.018;5.972;2022-10-17T20:08:50;17.60;57.50
16134;DHT22;8172;45.018;5.972;2022-10-17T20:14:01;17.60;57.60
16134;DHT22;8172;45.018;5.972;2022-10-17T20:19:12;17.60;57.70
16134;DHT22;8172;45.018;5.972;2022-10-17T20:24:23;17.60;57.80
16134;DHT22;8172;45.018;5.972;2022-10-17T20:29:34;17.50;58.10
16134;DHT22;8172;45.018;5.972;2022-10-17T20:34:44;17.40;58.40
16134;DHT22;8172;45.018;5.972;2022-10-17T20:39:56;17.40;58.60
16134;DHT22;8172;45.018;5.972;2022-10-17T20:50:25;17.20;59.10
16134;DHT22;8172;45.018;5.972;2022-10-17T20:55:35;17.20;59.10
16134;DHT22;8172;45.018;5.972;2022-10-17T21:00:46;17.10;59.30
16134;DHT22;8172;45.018;5.972;2022-10-17T21:11:19;17.10;59.30
16134;DHT22;8172;45.018;5.972;2022-10-17T21:16:30;17.00;59.50
16134;DHT22;8172;45.018;5.972;2022-10-17T21:21:43;16.90;59.50
16134;DHT22;8172;45.018;5.972;2022-10-17T21:26:54;16.90;59.50
16134;DHT22;8172;45.018;5.972;2022-10-17T21:32:07;17.00;59.50
16134;DHT22;8172;45.018;5.972;2022-10-17T21:37:20;17.00;59.40
16134;DHT22;8172;45.018;5.972;2022-10-17T21:42:35;17.00;59.50
16134;DHT22;8172;45.018;5.972;2022-10-17T21:47:44;17.00;59.40
16134;DHT22;8172;45.018;5.972;2022-10-17T21:52:57;17.00;59.40
16134;DHT22;8172;45.018;5.972;2022-10-17T21:58:10;17.00;59.40
16134;DHT22;8172;45.018;5.972;2022-10-17T22:03:44;17.00;59.30
16134;DHT22;8172;45.018;5.972;2022-10-17T22:08:56;17.10;59.30
16134;DHT22;8172;45.018;5.972;2022-10-17T22:14:09;17.10;59.20
16134;DHT22;8172;45.018;5.972;2022-10-17T22:19:19;17.10;59.20
16134;DHT22;8172;45.018;5.972;2022-10-17T22:24:30;17.10;59.20
16134;DHT22;8172;45.018;5.972;2022-10-17T22:29:43;17.20;59.30
16134;DHT22;8172;45.018;5.972;2022-10-17T22:34:54;17.20;59.80
16134;DHT22;8172;45.018;5.972;2022-10-17T22:40:06;17.20;60.20
16134;DHT22;8172;45.018;5.972;2022-10-17T22:45:14;17.20;61.10
16134;DHT22;8172;45.018;5.972;2022-10-17T22:50:24;17.20;62.10
16134;DHT22;8172;45.018;5.972;2022-10-17T22:55:34;17.10;61.90
16134;DHT22;8172;45.018;5.972;2022-10-17T23:00:46;17.00;62.40
16134;DHT22;8172;45.018;5.972;2022-10-17T23:05:56;17.00;62.50
16134;DHT22;8172;45.018;5.972;2022-10-17T23:11:07;16.90;62.10
16134;DHT22;8172;45.018;5.972;2022-10-17T23:16:17;16.90;62.20
16134;DHT22;8172;45.018;5.972;2022-10-17T23:21:27;16.90;62.30
16134;DHT22;8172;45.018;5.972;2022-10-17T23:26:40;16.80;62.40
16134;DHT22;8172;45.018;5.972;2022-10-17T23:31:53;16.80;62.40
16134;DHT22;8172;45.018;5.972;2022-10-17T23:37:03;16.70;62.60
16134;DHT22;8172;45.018;5.972;2022-10-17T23:42:14;16.70;62.70
16134;DHT22;8172;45.018;5.972;2022-10-17T23:47:26;16.60;62.60
16134;DHT22;8172;45.018;5.972;2022-10-17T23:57:53;16.50;62.60
